sensor_id;sensor_type;location;lat;lon;timestamp;pressure;altitude;pressure_sealevel;temperature;humidity
46379;BME280;32084;42.254;22.744;2023-10-09T00:00:16;95718.91;;;19.70;54.51
46379;BME280;32084;42.254;22.744;2023-10-09T00:03:02;95722.22;;;19.59;55.18
46379;BME280;32084;42.254;22.744;2023-10-09T00:05:33;95728.25;;;19.54;55.00
46379;BME280;32084;42.254;22.744;2023-10-09T00:08:11;95721.78;;;19.55;55.15
46379;BME280;32084;42.254;22.744;2023-10-09T00:11:03;95718.63;;;19.51;54.93
46379;BME280;32084;42.254;22.744;2023-10-09T00:13:43;95725.50;;;19.47;55.07
46379;BME280;32084;42.254;22.744;2023-10-09T00:16:23;95729.25;;;19.40;55.53
46379;BME280;32084;42.254;22.744;2023-10-09T00:19:02;95713.78;;;19.34;55.64
46379;BME280;32084;42.254;22.744;2023-10-09T00:21:43;95715.22;;;19.29;55.77
46379;BME280;32084;42.254;22.744;2023-10-09T00:24:10;95724.78;;;19.25;55.65
46379;BME280;32084;42.254;22.744;2023-10-09T00:26:45;95737.31;;;19.26;55.65
46379;BME280;32084;42.254;22.744;2023-10-09T00:29:15;95741.72;;;19.27;55.65
46379;BME280;32084;42.254;22.744;2023-10-09T00:31:51;95736.06;;;19.29;55.28
46379;BME280;32084;42.254;22.744;2023-10-09T00:34:21;95737.13;;;19.28;55.34
46379;BME280;32084;42.254;22.744;2023-10-09T00:36:48;95732.69;;;19.20;55.20
46379;BME280;32084;42.254;22.744;2023-10-09T00:39:20;95738.31;;;19.19;55.03
46379;BME280;32084;42.254;22.744;2023-10-09T00:42:02;95734.34;;;19.21;54.90
46379;BME280;32084;42.254;22.744;2023-10-09T00:44:29;95733.91;;;19.18;55.35
46379;BME280;32084;42.254;22.744;2023-10-09T00:47:04;95735.56;;;19.12;55.39
46379;BME280;32084;42.254;22.744;2023-10-09T00:49:37;95740.31;;;19.03;55.42
46379;BME280;32084;42.254;22.744;2023-10-09T00:52:08;95748.00;;;19.00;55.56
46379;BME280;32084;42.254;22.744;2023-10-09T00:54:44;95744.03;;;18.96;55.88
46379;BME280;32084;42.254;22.744;2023-10-09T00:57:17;95740.25;;;18.97;55.76
46379;BME280;32084;42.254;22.744;2023-10-09T00:59:43;95743.59;;;18.92;55.74
46379;BME280;32084;42.254;22.744;2023-10-09T01:02:12;95750.63;;;18.86;56.23
46379;BME280;32084;42.254;22.744;2023-10-09T01:04:44;95741.88;;;18.84;56.68
46379;BME280;32084;42.254;22.744;2023-10-09T01:07:10;95739.16;;;18.84;56.18
46379;BME280;32084;42.254;22.744;2023-10-09T01:09:51;95733.47;;;18.79;56.57
46379;BME280;32084;42.254;22.744;2023-10-09T01:12:20;95744.66;;;18.69;56.72
46379;BME280;32084;42.254;22.744;2023-10-09T01:14:47;95750.41;;;18.60;56.98
46379;BME280;32084;42.254;22.744;2023-10-09T01:17:20;95743.09;;;18.53;56.91
46379;BME280;32084;42.254;22.744;2023-10-09T01:20:09;95741.41;;;18.52;57.38
46379;BME280;32084;42.254;22.744;2023-10-09T01:22:48;95734.97;;;18.53;57.61
46379;BME280;32084;42.254;22.744;2023-10-09T01:25:16;95736.59;;;18.48;57.72
46379;BME280;32084;42.254;22.744;2023-10-09T01:27:42;95739.66;;;18.45;57.73
46379;BME280;32084;42.254;22.744;2023-10-09T01:30:09;95741.03;;;18.34;58.04
46379;BME280;32084;42.254;22.744;2023-10-09T01:32:39;95742.72;;;18.13;58.89
46379;BME280;32084;42.254;22.744;2023-10-09T01:35:06;95734.47;;;18.00;59.36
46379;BME280;32084;42.254;22.744;2023-10-09T01:37:46;95733.19;;;17.96;59.40
46379;BME280;32084;42.254;22.744;2023-10-09T01:40:16;95749.88;;;18.00;58.97
46379;BME280;32084;42.254;22.744;2023-10-09T01:42:52;95737.44;;;18.05;58.82
46379;BME280;32084;42.254;22.744;2023-10-09T01:45:18;95742.19;;;17.82;59.70
46379;BME280;32084;42.254;22.744;2023-10-09T01:47:44;95737.97;;;17.79;59.65
46379;BME280;32084;42.254;22.744;2023-10-09T01:50:17;95739.19;;;17.76;60.00
46379;BME280;32084;42.254;22.744;2023-10-09T01:52:53;95747.91;;;17.72;59.85
46379;BME280;32084;42.254;22.744;2023-10-09T01:55:19;95746.25;;;17.56;60.26
46379;BME280;32084;42.254;22.744;2023-10-09T01:57:59;95749.53;;;17.51;59.96
46379;BME280;32084;42.254;22.744;2023-10-09T02:00:33;95739.88;;;17.64;59.66
46379;BME280;32084;42.254;22.744;2023-10-09T02:03:07;95736.63;;;17.68;59.48
46379;BME280;32084;42.254;22.744;2023-10-09T02:05:44;95743.47;;;17.49;60.74
46379;BME280;32084;42.254;22.744;2023-10-09T02:08:10;95744.91;;;17.30;61.15
46379;BME280;32084;42.254;22.744;2023-10-09T02:10:37;95751.25;;;17.08;62.31
46379;BME280;32084;42.254;22.744;2023-10-09T02:13:13;95754.44;;;16.96;62.84
46379;BME280;32084;42.254;22.744;2023-10-09T02:15:42;95752.38;;;16.98;62.84
46379;BME280;32084;42.254;22.744;2023-10-09T02:18:09;95752.72;;;16.95;62.97
46379;BME280;32084;42.254;22.744;2023-10-09T02:23:29;95759.72;;;17.05;61.19
46379;BME280;32084;42.254;22.744;2023-10-09T02:26:14;95767.53;;;17.14;60.97
46379;BME280;32084;42.254;22.744;2023-10-09T02:28:54;95769.69;;;17.19;60.33
46379;BME280;32084;42.254;22.744;2023-10-09T02:31:29;95773.06;;;17.21;60.01
46379;BME280;32084;42.254;22.744;2023-10-09T02:34:06;95777.69;;;17.27;58.93
46379;BME280;32084;42.254;22.744;2023-10-09T02:36:34;95785.34;;;17.24;58.84
46379;BME280;32084;42.254;22.744;2023-10-09T02:39:09;95797.72;;;17.18;58.52
46379;BME280;32084;42.254;22.744;2023-10-09T02:41:55;95792.16;;;17.20;58.13
46379;BME280;32084;42.254;22.744;2023-10-09T02:44:27;95797.56;;;17.20;58.61
46379;BME280;32084;42.254;22.744;2023-10-09T02:47:00;95813.13;;;17.17;58.97
46379;BME280;32084;42.254;22.744;2023-10-09T02:49:31;95811.44;;;17.02;59.03
46379;BME280;32084;42.254;22.744;2023-10-09T02:51:57;95816.84;;;17.02;59.13
46379;BME280;32084;42.254;22.744;2023-10-09T02:54:23;95819.91;;;16.98;58.76
46379;BME280;32084;42.254;22.744;2023-10-09T02:56:49;95809.47;;;16.95;58.46
46379;BME280;32084;42.254;22.744;2023-10-09T02:59:31;95814.38;;;16.92;58.71
46379;BME280;32084;42.254;22.744;2023-10-09T03:01:57;95810.31;;;16.96;58.47
46379;BME280;32084;42.254;22.744;2023-10-09T03:04:25;95821.78;;;16.98;57.83
46379;BME280;32084;42.254;22.744;2023-10-09T03:06:55;95816.63;;;16.88;57.69
46379;BME280;32084;42.254;22.744;2023-10-09T03:09:23;95829.28;;;16.88;57.99
46379;BME280;32084;42.254;22.744;2023-10-09T03:11:59;95827.72;;;16.93;57.73
46379;BME280;32084;42.254;22.744;2023-10-09T03:14:36;95827.19;;;16.98;57.19
46379;BME280;32084;42.254;22.744;2023-10-09T03:17:04;95820.66;;;16.92;57.02
46379;BME280;32084;42.254;22.744;2023-10-09T03:19:31;95812.09;;;16.81;57.79
46379;BME280;32084;42.254;22.744;2023-10-09T03:22:03;95829.22;;;16.73;57.41
46379;BME280;32084;42.254;22.744;2023-10-09T03:24:29;95855.09;;;16.67;57.20
46379;BME280;32084;42.254;22.744;2023-10-09T03:26:58;95859.66;;;16.67;57.04
46379;BME280;32084;42.254;22.744;2023-10-09T03:29:24;95867.59;;;16.68;56.43
46379;BME280;32084;42.254;22.744;2023-10-09T03:31:50;95862.53;;;16.65;56.56
46379;BME280;32084;42.254;22.744;2023-10-09T03:34:17;95858.91;;;16.58;56.25
46379;BME280;32084;42.254;22.744;2023-10-09T03:36:46;95852.00;;;16.55;56.37
46379;BME280;32084;42.254;22.744;2023-10-09T03:39:14;95859.78;;;16.50;56.65
46379;BME280;32084;42.254;22.744;2023-10-09T03:41:58;95881.38;;;16.50;56.74
46379;BME280;32084;42.254;22.744;2023-10-09T03:44:25;95869.56;;;16.51;56.82
46379;BME280;32084;42.254;22.744;2023-10-09T03:46:54;95859.44;;;16.53;56.30
46379;BME280;32084;42.254;22.744;2023-10-09T03:49:20;95846.97;;;16.52;56.34
46379;BME280;32084;42.254;22.744;2023-10-09T03:51:49;95847.50;;;16.48;55.77
46379;BME280;32084;42.254;22.744;2023-10-09T03:54:16;95858.19;;;16.41;56.06
46379;BME280;32084;42.254;22.744;2023-10-09T03:56:46;95869.69;;;16.35;56.44
46379;BME280;32084;42.254;22.744;2023-10-09T03:59:18;95862.00;;;16.24;56.84
46379;BME280;32084;42.254;22.744;2023-10-09T04:01:47;95872.09;;;16.30;56.71
46379;BME280;32084;42.254;22.744;2023-10-09T04:04:14;95871.72;;;16.33;56.63
46379;BME280;32084;42.254;22.744;2023-10-09T04:06:40;95871.06;;;16.31;56.75
46379;BME280;32084;42.254;22.744;2023-10-09T04:09:07;95872.38;;;16.35;56.61
46379;BME280;32084;42.254;22.744;2023-10-09T04:11:53;95868.25;;;16.24;57.24
46379;BME280;32084;42.254;22.744;2023-10-09T04:14:42;95867.94;;;16.19;57.00
46379;BME280;32084;42.254;22.744;2023-10-09T04:17:23;95866.25;;;16.18;57.16
46379;BME280;32084;42.254;22.744;2023-10-09T04:19:55;95863.09;;;16.14;56.53
46379;BME280;32084;42.254;22.744;2023-10-09T04:22:40;95855.66;;;16.16;56.02
46379;BME280;32084;42.254;22.744;2023-10-09T04:25:25;95856.81;;;16.22;55.98
46379;BME280;32084;42.254;22.744;2023-10-09T04:27:58;95864.03;;;16.22;55.14
46379;BME280;32084;42.254;22.744;2023-10-09T04:30:43;95869.56;;;16.05;55.82
46379;BME280;32084;42.254;22.744;2023-10-09T04:33:09;95866.78;;;15.90;56.63
46379;BME280;32084;42.254;22.744;2023-10-09T04:36:03;95864.19;;;15.97;56.62
46379;BME280;32084;42.254;22.744;2023-10-09T04:38:48;95863.50;;;16.03;56.52
46379;BME280;32084;42.254;22.744;2023-10-09T04:41:30;95865.66;;;16.08;56.25
46379;BME280;32084;42.254;22.744;2023-10-09T04:44:18;95863.53;;;15.95;56.58
46379;BME280;32084;42.254;22.744;2023-10-09T04:46:55;95871.00;;;15.85;56.48
46379;BME280;32084;42.254;22.744;2023-10-09T04:49:37;95872.59;;;15.62;57.31
46379;BME280;32084;42.254;22.744;2023-10-09T04:52:27;95867.19;;;15.62;57.74
46379;BME280;32084;42.254;22.744;2023-10-09T04:54:56;95874.63;;;15.60;57.81
46379;BME280;32084;42.254;22.744;2023-10-09T04:57:38;95883.91;;;15.58;57.47
46379;BME280;32084;42.254;22.744;2023-10-09T05:00:11;95892.16;;;15.56;58.49
46379;BME280;32084;42.254;22.744;2023-10-09T05:02:58;95882.22;;;15.57;58.50
46379;BME280;32084;42.254;22.744;2023-10-09T05:05:33;95881.22;;;15.50;58.90
46379;BME280;32084;42.254;22.744;2023-10-09T05:08:12;95875.00;;;15.49;58.88
46379;BME280;32084;42.254;22.744;2023-10-09T05:13:26;95867.94;;;15.48;58.14
46379;BME280;32084;42.254;22.744;2023-10-09T05:16:04;95880.38;;;15.49;57.49
46379;BME280;32084;42.254;22.744;2023-10-09T05:18:30;95888.69;;;15.39;57.52
46379;BME280;32084;42.254;22.744;2023-10-09T05:21:03;95903.69;;;15.34;58.21
46379;BME280;32084;42.254;22.744;2023-10-09T05:23:38;95912.09;;;15.39;57.85
46379;BME280;32084;42.254;22.744;2023-10-09T05:26:14;95901.25;;;15.55;57.70
46379;BME280;32084;42.254;22.744;2023-10-09T05:29:00;95899.91;;;15.51;58.36
46379;BME280;32084;42.254;22.744;2023-10-09T05:31:51;95898.25;;;15.50;57.92
46379;BME280;32084;42.254;22.744;2023-10-09T05:34:29;95902.78;;;15.58;55.93
46379;BME280;32084;42.254;22.744;2023-10-09T05:37:13;95905.44;;;15.66;56.27
46379;BME280;32084;42.254;22.744;2023-10-09T05:39:53;95913.19;;;15.69;55.97
46379;BME280;32084;42.254;22.744;2023-10-09T05:42:26;95923.66;;;15.56;56.31
46379;BME280;32084;42.254;22.744;2023-10-09T05:45:18;95957.75;;;17.28;52.93
46379;BME280;32084;42.254;22.744;2023-10-09T05:48:03;95968.44;;;19.63;46.39
46379;BME280;32084;42.254;22.744;2023-10-09T05:50:29;95958.28;;;18.94;48.04
46379;BME280;32084;42.254;22.744;2023-10-09T05:53:03;95955.44;;;19.02;48.29
46379;BME280;32084;42.254;22.744;2023-10-09T05:55:30;95969.91;;;20.22;44.84
46379;BME280;32084;42.254;22.744;2023-10-09T05:58:19;95996.53;;;22.15;41.32
46379;BME280;32084;42.254;22.744;2023-10-09T06:01:03;96019.34;;;23.88;38.15
46379;BME280;32084;42.254;22.744;2023-10-09T06:03:48;96026.13;;;25.03;35.85
46379;BME280;32084;42.254;22.744;2023-10-09T06:06:32;96048.72;;;26.13;33.37
46379;BME280;32084;42.254;22.744;2023-10-09T06:09:05;96054.75;;;26.86;32.54
46379;BME280;32084;42.254;22.744;2023-10-09T06:11:41;96058.63;;;27.25;31.67
46379;BME280;32084;42.254;22.744;2023-10-09T06:14:18;96066.03;;;27.25;31.43
46379;BME280;32084;42.254;22.744;2023-10-09T06:16:56;96056.94;;;27.24;31.23
46379;BME280;32084;42.254;22.744;2023-10-09T06:19:23;96070.88;;;26.82;31.83
46379;BME280;32084;42.254;22.744;2023-10-09T06:21:49;96067.53;;;26.21;32.23
46379;BME280;32084;42.254;22.744;2023-10-09T06:24:18;96056.25;;;24.23;35.17
46379;BME280;32084;42.254;22.744;2023-10-09T06:26:45;96047.66;;;22.13;38.59
46379;BME280;32084;42.254;22.744;2023-10-09T06:29:38;96036.53;;;21.35;40.74
46379;BME280;32084;42.254;22.744;2023-10-09T06:32:16;96032.72;;;21.09;40.73
46379;BME280;32084;42.254;22.744;2023-10-09T06:34:43;96026.22;;;20.55;41.09
46379;BME280;32084;42.254;22.744;2023-10-09T06:37:20;96025.09;;;20.36;41.12
46379;BME280;32084;42.254;22.744;2023-10-09T06:39:50;96044.34;;;20.41;38.77
46379;BME280;32084;42.254;22.744;2023-10-09T06:42:16;96045.63;;;20.11;37.86
46379;BME280;32084;42.254;22.744;2023-10-09T06:45:10;96053.09;;;20.02;38.22
46379;BME280;32084;42.254;22.744;2023-10-09T06:47:43;96051.59;;;19.99;37.93
46379;BME280;32084;42.254;22.744;2023-10-09T06:50:30;96061.91;;;20.11;37.82
46379;BME280;32084;42.254;22.744;2023-10-09T06:53:14;96057.47;;;20.66;36.39
46379;BME280;32084;42.254;22.744;2023-10-09T06:55:40;96064.81;;;20.72;35.31
46379;BME280;32084;42.254;22.744;2023-10-09T06:58:29;96075.53;;;20.52;36.00
46379;BME280;32084;42.254;22.744;2023-10-09T07:01:07;96080.53;;;20.48;34.46
46379;BME280;32084;42.254;22.744;2023-10-09T07:03:51;96084.41;;;20.61;35.20
46379;BME280;32084;42.254;22.744;2023-10-09T07:06:20;96082.16;;;20.43;34.51
46379;BME280;32084;42.254;22.744;2023-10-09T07:09:02;96084.63;;;20.66;34.58
46379;BME280;32084;42.254;22.744;2023-10-09T07:11:32;96081.34;;;20.77;34.88
46379;BME280;32084;42.254;22.744;2023-10-09T07:14:17;96080.28;;;20.72;33.88
46379;BME280;32084;42.254;22.744;2023-10-09T07:19:30;96087.00;;;20.82;32.07
46379;BME280;32084;42.254;22.744;2023-10-09T07:22:03;96078.44;;;20.92;33.37
46379;BME280;32084;42.254;22.744;2023-10-09T07:24:29;96074.72;;;20.93;33.08
46379;BME280;32084;42.254;22.744;2023-10-09T07:27:28;96075.81;;;21.19;32.67
46379;BME280;32084;42.254;22.744;2023-10-09T07:30:11;96072.91;;;21.14;32.91
46379;BME280;32084;42.254;22.744;2023-10-09T07:35:34;96070.09;;;21.89;31.27
46379;BME280;32084;42.254;22.744;2023-10-09T07:38:30;96071.75;;;21.83;31.02
46379;BME280;32084;42.254;22.744;2023-10-09T07:40:55;96065.91;;;21.86;32.27
46379;BME280;32084;42.254;22.744;2023-10-09T07:43:22;96071.31;;;22.06;31.39
46379;BME280;32084;42.254;22.744;2023-10-09T07:45:53;96065.47;;;22.09;30.70
46379;BME280;32084;42.254;22.744;2023-10-09T07:48:25;96071.31;;;22.06;30.75
46379;BME280;32084;42.254;22.744;2023-10-09T07:51:11;96072.63;;;21.97;30.60
46379;BME280;32084;42.254;22.744;2023-10-09T07:53:37;96065.25;;;21.91;32.18
46379;BME280;32084;42.254;22.744;2023-10-09T07:56:12;96069.66;;;22.12;32.29
46379;BME280;32084;42.254;22.744;2023-10-09T07:58:46;96062.09;;;22.14;32.68
46379;BME280;32084;42.254;22.744;2023-10-09T08:01:13;96067.13;;;22.17;32.80
46379;BME280;32084;42.254;22.744;2023-10-09T08:04:01;96065.69;;;22.28;33.05
46379;BME280;32084;42.254;22.744;2023-10-09T08:06:46;96053.69;;;22.42;31.58
46379;BME280;32084;42.254;22.744;2023-10-09T08:09:13;96055.38;;;22.43;31.41
46379;BME280;32084;42.254;22.744;2023-10-09T08:11:43;96061.50;;;22.32;31.89
46379;BME280;32084;42.254;22.744;2023-10-09T08:14:10;96066.50;;;22.41;30.72
46379;BME280;32084;42.254;22.744;2023-10-09T08:16:49;96061.03;;;22.41;30.66
46379;BME280;32084;42.254;22.744;2023-10-09T08:19:17;96058.72;;;22.38;31.04
46379;BME280;32084;42.254;22.744;2023-10-09T08:21:59;96064.16;;;22.52;31.53
46379;BME280;32084;42.254;22.744;2023-10-09T08:24:45;96057.06;;;22.24;32.01
46379;BME280;32084;42.254;22.744;2023-10-09T08:27:21;96064.00;;;22.27;30.97
46379;BME280;32084;42.254;22.744;2023-10-09T08:30:00;96061.28;;;22.20;31.12
46379;BME280;32084;42.254;22.744;2023-10-09T08:32:45;96055.38;;;22.23;31.64
46379;BME280;32084;42.254;22.744;2023-10-09T08:35:29;96053.09;;;22.13;30.61
46379;BME280;32084;42.254;22.744;2023-10-09T08:37:56;96046.16;;;22.51;30.73
46379;BME280;32084;42.254;22.744;2023-10-09T08:40:33;96044.91;;;22.40;31.40
46379;BME280;32084;42.254;22.744;2023-10-09T08:43:07;96045.78;;;22.27;31.44
46379;BME280;32084;42.254;22.744;2023-10-09T08:45:38;96048.00;;;22.57;30.01
46379;BME280;32084;42.254;22.744;2023-10-09T08:48:08;96040.25;;;22.60;30.19
46379;BME280;32084;42.254;22.744;2023-10-09T08:50:41;96043.78;;;22.61;29.14
46379;BME280;32084;42.254;22.744;2023-10-09T08:53:09;96032.09;;;22.54;29.46
46379;BME280;32084;42.254;22.744;2023-10-09T08:55:39;96026.19;;;22.57;29.82
46379;BME280;32084;42.254;22.744;2023-10-09T08:58:05;96019.88;;;22.63;30.47
46379;BME280;32084;42.254;22.744;2023-10-09T09:00:39;96018.78;;;22.77;29.69
46379;BME280;32084;42.254;22.744;2023-10-09T09:03:09;96001.16;;;22.80;30.86
46379;BME280;32084;42.254;22.744;2023-10-09T09:05:34;96005.63;;;23.13;30.01
46379;BME280;32084;42.254;22.744;2023-10-09T09:08:01;96017.63;;;23.37;29.33
46379;BME280;32084;42.254;22.744;2023-10-09T09:10:28;96019.72;;;23.67;28.60
46379;BME280;32084;42.254;22.744;2023-10-09T09:13:02;96013.88;;;23.63;28.19
46379;BME280;32084;42.254;22.744;2023-10-09T09:15:29;96017.06;;;23.28;27.81
46379;BME280;32084;42.254;22.744;2023-10-09T09:18:05;96023.25;;;23.49;26.77
46379;BME280;32084;42.254;22.744;2023-10-09T09:20:32;96022.88;;;23.64;26.75
46379;BME280;32084;42.254;22.744;2023-10-09T09:23:02;96017.31;;;23.77;27.00
46379;BME280;32084;42.254;22.744;2023-10-09T09:25:45;96021.69;;;24.10;26.18
46379;BME280;32084;42.254;22.744;2023-10-09T09:28:12;96029.59;;;24.18;25.21
46379;BME280;32084;42.254;22.744;2023-10-09T09:30:47;96023.03;;;23.75;25.66
46379;BME280;32084;42.254;22.744;2023-10-09T09:35:55;96005.38;;;23.21;27.73
46379;BME280;32084;42.254;22.744;2023-10-09T09:38:24;96003.25;;;22.85;27.92
46379;BME280;32084;42.254;22.744;2023-10-09T09:40:52;96003.31;;;23.16;27.46
46379;BME280;32084;42.254;22.744;2023-10-09T09:43:20;96008.13;;;23.14;26.62
46379;BME280;32084;42.254;22.744;2023-10-09T09:45:48;95999.31;;;23.44;27.34
46379;BME280;32084;42.254;22.744;2023-10-09T09:48:15;95991.72;;;23.53;27.74
46379;BME280;32084;42.254;22.744;2023-10-09T09:50:42;95998.28;;;23.45;28.03
46379;BME280;32084;42.254;22.744;2023-10-09T09:53:12;95997.91;;;23.35;26.38
46379;BME280;32084;42.254;22.744;2023-10-09T09:55:45;95994.97;;;23.05;26.37
46379;BME280;32084;42.254;22.744;2023-10-09T09:58:18;95980.19;;;22.80;27.50
46379;BME280;32084;42.254;22.744;2023-10-09T10:00:50;95979.59;;;23.17;26.38
46379;BME280;32084;42.254;22.744;2023-10-09T10:03:25;95982.44;;;23.29;26.27
46379;BME280;32084;42.254;22.744;2023-10-09T10:05:52;95984.13;;;23.30;25.97
46379;BME280;32084;42.254;22.744;2023-10-09T10:08:22;95973.63;;;23.84;25.64
46379;BME280;32084;42.254;22.744;2023-10-09T10:10:56;95974.00;;;23.87;24.33
46379;BME280;32084;42.254;22.744;2023-10-09T10:16:07;95963.81;;;23.19;26.68
46379;BME280;32084;42.254;22.744;2023-10-09T10:21:28;95952.16;;;23.87;26.29
46379;BME280;32084;42.254;22.744;2023-10-09T10:24:03;95950.47;;;23.86;24.76
46379;BME280;32084;42.254;22.744;2023-10-09T10:26:32;95957.22;;;23.58;24.16
46379;BME280;32084;42.254;22.744;2023-10-09T10:31:52;95937.13;;;23.28;24.26
46379;BME280;32084;42.254;22.744;2023-10-09T10:34:20;95931.44;;;23.54;25.46
46379;BME280;32084;42.254;22.744;2023-10-09T10:36:50;95933.16;;;23.74;25.69
46379;BME280;32084;42.254;22.744;2023-10-09T10:39:18;95927.59;;;24.06;24.96
46379;BME280;32084;42.254;22.744;2023-10-09T10:41:52;95911.72;;;24.14;24.63
46379;BME280;32084;42.254;22.744;2023-10-09T10:44:26;95920.31;;;24.18;24.81
46379;BME280;32084;42.254;22.744;2023-10-09T10:47:08;95903.31;;;24.34;24.90
46379;BME280;32084;42.254;22.744;2023-10-09T10:49:51;95908.03;;;23.90;24.14
46379;BME280;32084;42.254;22.744;2023-10-09T10:52:21;95900.38;;;23.30;25.08
46379;BME280;32084;42.254;22.744;2023-10-09T10:54:47;95901.81;;;23.33;26.18
46379;BME280;32084;42.254;22.744;2023-10-09T10:57:35;95898.28;;;23.26;26.08
46379;BME280;32084;42.254;22.744;2023-10-09T11:00:19;95894.72;;;23.50;25.45
46379;BME280;32084;42.254;22.744;2023-10-09T11:03:04;95890.13;;;23.69;25.11
46379;BME280;32084;42.254;22.744;2023-10-09T11:05:42;95886.84;;;23.86;25.43
46379;BME280;32084;42.254;22.744;2023-10-09T11:08:11;95884.19;;;23.79;25.16
46379;BME280;32084;42.254;22.744;2023-10-09T11:10:39;95884.91;;;23.68;24.75
46379;BME280;32084;42.254;22.744;2023-10-09T11:13:22;95876.72;;;23.68;25.13
46379;BME280;32084;42.254;22.744;2023-10-09T11:15:59;95870.50;;;23.61;24.75
46379;BME280;32084;42.254;22.744;2023-10-09T11:18:47;95871.13;;;23.37;24.91
46379;BME280;32084;42.254;22.744;2023-10-09T11:21:14;95869.63;;;23.42;24.77
46379;BME280;32084;42.254;22.744;2023-10-09T11:23:43;95865.59;;;23.44;24.21
46379;BME280;32084;42.254;22.744;2023-10-09T11:26:18;95856.00;;;23.60;25.65
46379;BME280;32084;42.254;22.744;2023-10-09T11:29:11;95850.03;;;23.70;25.22
46379;BME280;32084;42.254;22.744;2023-10-09T11:31:40;95855.03;;;23.73;23.85
46379;BME280;32084;42.254;22.744;2023-10-09T11:34:28;95843.50;;;23.52;23.47
46379;BME280;32084;42.254;22.744;2023-10-09T11:37:01;95843.72;;;23.51;24.88
46379;BME280;32084;42.254;22.744;2023-10-09T11:39:31;95835.53;;;23.69;24.66
46379;BME280;32084;42.254;22.744;2023-10-09T11:42:01;95828.06;;;23.83;24.67
46379;BME280;32084;42.254;22.744;2023-10-09T11:44:36;95826.66;;;23.74;24.74
46379;BME280;32084;42.254;22.744;2023-10-09T11:47:05;95824.69;;;23.63;24.54
46379;BME280;32084;42.254;22.744;2023-10-09T11:49:55;95813.63;;;23.57;24.68
46379;BME280;32084;42.254;22.744;2023-10-09T11:52:28;95801.97;;;23.25;23.33
46379;BME280;32084;42.254;22.744;2023-10-09T11:55:00;95791.88;;;23.07;23.95
46379;BME280;32084;42.254;22.744;2023-10-09T11:57:27;95790.00;;;23.01;23.86
46379;BME280;32084;42.254;22.744;2023-10-09T11:59:59;95784.09;;;23.11;23.66
46379;BME280;32084;42.254;22.744;2023-10-09T12:02:26;95787.19;;;23.14;24.18
46379;BME280;32084;42.254;22.744;2023-10-09T12:04:52;95774.91;;;23.24;24.23
46379;BME280;32084;42.254;22.744;2023-10-09T12:07:22;95775.19;;;23.59;24.53
46379;BME280;32084;42.254;22.744;2023-10-09T12:09:48;95779.97;;;23.82;23.93
46379;BME280;32084;42.254;22.744;2023-10-09T12:12:14;95751.66;;;23.76;24.23
46379;BME280;32084;42.254;22.744;2023-10-09T12:14:40;95768.44;;;23.80;24.93
46379;BME280;32084;42.254;22.744;2023-10-09T12:17:07;95765.63;;;23.68;24.04
46379;BME280;32084;42.254;22.744;2023-10-09T12:19:33;95755.31;;;23.52;24.14
46379;BME280;32084;42.254;22.744;2023-10-09T12:22:00;95749.84;;;23.52;24.54
46379;BME280;32084;42.254;22.744;2023-10-09T12:24:27;95749.84;;;23.52;24.54
46379;BME280;32084;42.254;22.744;2023-10-09T12:26:55;95749.84;;;23.52;23.57
46379;BME280;32084;42.254;22.744;2023-10-09T12:29:21;95755.69;;;23.37;23.29
46379;BME280;32084;42.254;22.744;2023-10-09T12:31:47;95743.25;;;23.23;23.94
46379;BME280;32084;42.254;22.744;2023-10-09T12:34:13;95746.81;;;23.23;23.41
46379;BME280;32084;42.254;22.744;2023-10-09T12:36:45;95740.16;;;23.19;24.24
46379;BME280;32084;42.254;22.744;2023-10-09T12:39:11;95734.75;;;23.12;24.14
46379;BME280;32084;42.254;22.744;2023-10-09T12:41:44;95724.09;;;23.11;23.94
46379;BME280;32084;42.254;22.744;2023-10-09T12:44:10;95728.84;;;23.15;24.15
46379;BME280;32084;42.254;22.744;2023-10-09T12:46:46;95734.16;;;23.29;25.19
46379;BME280;32084;42.254;22.744;2023-10-09T12:49:21;95726.59;;;23.31;24.81
46379;BME280;32084;42.254;22.744;2023-10-09T12:51:56;95717.34;;;23.32;25.09
46379;BME280;32084;42.254;22.744;2023-10-09T12:54:24;95721.44;;;23.23;25.13
46379;BME280;32084;42.254;22.744;2023-10-09T12:56:53;95717.78;;;23.10;23.69
46379;BME280;32084;42.254;22.744;2023-10-09T12:59:19;95721.59;;;23.03;24.60
46379;BME280;32084;42.254;22.744;2023-10-09T13:01:46;95714.00;;;23.11;24.24
46379;BME280;32084;42.254;22.744;2023-10-09T13:04:18;95707.03;;;23.15;25.02
46379;BME280;32084;42.254;22.744;2023-10-09T13:06:48;95709.97;;;23.14;23.86
46379;BME280;32084;42.254;22.744;2023-10-09T13:09:17;95703.00;;;23.18;24.77
46379;BME280;32084;42.254;22.744;2023-10-09T13:12:08;95704.59;;;23.26;25.23
46379;BME280;32084;42.254;22.744;2023-10-09T13:14:38;95696.13;;;23.34;25.76
46379;BME280;32084;42.254;22.744;2023-10-09T13:17:04;95697.34;;;23.19;23.48
46379;BME280;32084;42.254;22.744;2023-10-09T13:19:35;95683.78;;;23.13;24.32
46379;BME280;32084;42.254;22.744;2023-10-09T13:22:01;95683.47;;;23.21;24.84
46379;BME280;32084;42.254;22.744;2023-10-09T13:24:29;95679.44;;;23.24;24.49
46379;BME280;32084;42.254;22.744;2023-10-09T13:26:56;95678.84;;;23.22;24.93
46379;BME280;32084;42.254;22.744;2023-10-09T13:29:24;95677.84;;;23.16;24.01
46379;BME280;32084;42.254;22.744;2023-10-09T13:31:50;95671.25;;;23.24;23.83
46379;BME280;32084;42.254;22.744;2023-10-09T13:34:18;95671.75;;;23.21;23.65
46379;BME280;32084;42.254;22.744;2023-10-09T13:36:44;95671.75;;;23.21;23.48
46379;BME280;32084;42.254;22.744;2023-10-09T13:39:19;95673.44;;;23.33;22.87
46379;BME280;32084;42.254;22.744;2023-10-09T13:41:48;95669.69;;;23.34;23.24
46379;BME280;32084;42.254;22.744;2023-10-09T13:44:14;95663.41;;;23.34;24.36